sensor_id;sensor_type;location;lat;lon;timestamp;temperature;humidity
12769;DHT22;6448;48.916;8.990;2024-02-26T00:00:28;12.30;50.50
12769;DHT22;6448;48.916;8.990;2024-02-26T00:01:32;12.30;50.50
12769;DHT22;6448;48.916;8.990;2024-02-26T00:02:33;12.30;50.60
12769;DHT22;6448;48.916;8.990;2024-02-26T00:03:38;12.30;50.50
12769;DHT22;6448;48.916;8.990;2024-02-26T00:04:39;12.30;50.60
12769;DHT22;6448;48.916;8.990;2024-02-26T00:05:41;12.30;50.60
12769;DHT22;6448;48.916;8.990;2024-02-26T00:06:42;12.30;50.60
12769;DHT22;6448;48.916;8.990;2024-02-26T00:07:44;12.30;50.60
12769;DHT22;6448;48.916;8.990;2024-02-26T00:08:45;12.30;50.50
12769;DHT22;6448;48.916;8.990;2024-02-26T00:09:47;12.30;50.50
12769;DHT22;6448;48.916;8.990;2024-02-26T00:10:48;12.30;50.60
12769;DHT22;6448;48.916;8.990;2024-02-26T00:11:49;12.30;50.70
12769;DHT22;6448;48.916;8.990;2024-02-26T00:12:50;12.30;50.80
12769;DHT22;6448;48.916;8.990;2024-02-26T00:13:52;12.30;50.80
12769;DHT22;6448;48.916;8.990;2024-02-26T00:14:54;12.30;50.70
12769;DHT22;6448;48.916;8.990;2024-02-26T00:15:54;12.30;50.80
12769;DHT22;6448;48.916;8.990;2024-02-26T00:16:56;12.30;50.80
12769;DHT22;6448;48.916;8.990;2024-02-26T00:17:57;12.30;50.80
12769;DHT22;6448;48.916;8.990;2024-02-26T00:18:59;12.30;50.80
12769;DHT22;6448;48.916;8.990;2024-02-26T00:19:59;12.30;50.70
12769;DHT22;6448;48.916;8.990;2024-02-26T00:21:02;12.30;50.70
12769;DHT22;6448;48.916;8.990;2024-02-26T00:22:03;12.30;50.70
12769;DHT22;6448;48.916;8.990;2024-02-26T00:23:04;12.30;50.60
12769;DHT22;6448;48.916;8.990;2024-02-26T00:24:05;12.30;50.60
12769;DHT22;6448;48.916;8.990;2024-02-26T00:25:07;12.30;50.60
12769;DHT22;6448;48.916;8.990;2024-02-26T00:26:08;12.30;50.60
12769;DHT22;6448;48.916;8.990;2024-02-26T00:27:09;12.30;50.60
12769;DHT22;6448;48.916;8.990;2024-02-26T00:28:11;12.60;50.70
12769;DHT22;6448;48.916;8.990;2024-02-26T00:29:13;12.30;50.60
12769;DHT22;6448;48.916;8.990;2024-02-26T00:30:17;12.30;50.70
12769;DHT22;6448;48.916;8.990;2024-02-26T00:31:17;12.30;50.80
12769;DHT22;6448;48.916;8.990;2024-02-26T00:32:19;12.30;50.80
12769;DHT22;6448;48.916;8.990;2024-02-26T00:33:20;12.30;50.80
12769;DHT22;6448;48.916;8.990;2024-02-26T00:34:21;12.30;50.80
12769;DHT22;6448;48.916;8.990;2024-02-26T00:35:22;12.30;50.90
12769;DHT22;6448;48.916;8.990;2024-02-26T00:36:24;12.30;51.10
12769;DHT22;6448;48.916;8.990;2024-02-26T00:37:25;12.30;51.20
12769;DHT22;6448;48.916;8.990;2024-02-26T00:38:26;12.40;51.30
12769;DHT22;6448;48.916;8.990;2024-02-26T00:39:27;12.30;51.30
12769;DHT22;6448;48.916;8.990;2024-02-26T00:40:29;12.30;51.30
12769;DHT22;6448;48.916;8.990;2024-02-26T00:41:29;12.30;51.30
12769;DHT22;6448;48.916;8.990;2024-02-26T00:42:31;12.30;51.40
12769;DHT22;6448;48.916;8.990;2024-02-26T00:43:32;12.30;51.40
12769;DHT22;6448;48.916;8.990;2024-02-26T00:44:33;12.30;51.40
12769;DHT22;6448;48.916;8.990;2024-02-26T00:45:36;12.30;51.40
12769;DHT22;6448;48.916;8.990;2024-02-26T00:46:37;12.30;51.30
12769;DHT22;6448;48.916;8.990;2024-02-26T00:47:38;12.30;51.30
12769;DHT22;6448;48.916;8.990;2024-02-26T00:48:41;12.30;51.20
12769;DHT22;6448;48.916;8.990;2024-02-26T00:49:43;12.30;51.20
12769;DHT22;6448;48.916;8.990;2024-02-26T00:50:44;12.30;51.20
12769;DHT22;6448;48.916;8.990;2024-02-26T00:51:46;12.30;51.20
12769;DHT22;6448;48.916;8.990;2024-02-26T00:52:46;12.30;51.30
12769;DHT22;6448;48.916;8.990;2024-02-26T00:53:47;12.30;51.30
12769;DHT22;6448;48.916;8.990;2024-02-26T00:54:49;12.30;51.30
12769;DHT22;6448;48.916;8.990;2024-02-26T00:55:50;12.50;51.50
12769;DHT22;6448;48.916;8.990;2024-02-26T00:56:51;12.30;51.50
12769;DHT22;6448;48.916;8.990;2024-02-26T00:57:52;12.30;51.40
12769;DHT22;6448;48.916;8.990;2024-02-26T00:58:54;12.30;51.40
12769;DHT22;6448;48.916;8.990;2024-02-26T00:59:55;12.30;51.30
12769;DHT22;6448;48.916;8.990;2024-02-26T01:00:58;12.30;51.20
12769;DHT22;6448;48.916;8.990;2024-02-26T01:01:59;12.30;51.20
12769;DHT22;6448;48.916;8.990;2024-02-26T01:03:03;12.30;51.20
12769;DHT22;6448;48.916;8.990;2024-02-26T01:04:05;12.30;51.10
12769;DHT22;6448;48.916;8.990;2024-02-26T01:05:07;12.30;51.00
12769;DHT22;6448;48.916;8.990;2024-02-26T01:06:07;12.30;51.00
12769;DHT22;6448;48.916;8.990;2024-02-26T01:07:10;12.20;51.00
12769;DHT22;6448;48.916;8.990;2024-02-26T01:08:11;12.20;51.10
12769;DHT22;6448;48.916;8.990;2024-02-26T01:09:12;12.20;51.20
12769;DHT22;6448;48.916;8.990;2024-02-26T01:10:13;12.20;51.20
12769;DHT22;6448;48.916;8.990;2024-02-26T01:11:15;12.20;51.20
12769;DHT22;6448;48.916;8.990;2024-02-26T01:12:16;12.20;51.20
12769;DHT22;6448;48.916;8.990;2024-02-26T01:13:17;12.20;51.30
12769;DHT22;6448;48.916;8.990;2024-02-26T01:14:19;12.20;51.30
12769;DHT22;6448;48.916;8.990;2024-02-26T01:15:19;12.20;51.40
12769;DHT22;6448;48.916;8.990;2024-02-26T01:16:25;12.20;51.40
12769;DHT22;6448;48.916;8.990;2024-02-26T01:17:26;12.20;51.60
12769;DHT22;6448;48.916;8.990;2024-02-26T01:18:27;12.20;51.60
12769;DHT22;6448;48.916;8.990;2024-02-26T01:19:28;12.20;51.80
12769;DHT22;6448;48.916;8.990;2024-02-26T01:20:30;12.20;51.80
12769;DHT22;6448;48.916;8.990;2024-02-26T01:21:31;12.10;51.80
12769;DHT22;6448;48.916;8.990;2024-02-26T01:22:32;12.10;51.90
12769;DHT22;6448;48.916;8.990;2024-02-26T01:23:33;12.10;51.90
12769;DHT22;6448;48.916;8.990;2024-02-26T01:24:34;12.10;52.10
12769;DHT22;6448;48.916;8.990;2024-02-26T01:25:36;12.10;52.20
12769;DHT22;6448;48.916;8.990;2024-02-26T01:26:37;12.10;52.30
12769;DHT22;6448;48.916;8.990;2024-02-26T01:27:38;12.10;52.30
12769;DHT22;6448;48.916;8.990;2024-02-26T01:28:41;12.10;52.30
12769;DHT22;6448;48.916;8.990;2024-02-26T01:29:42;12.10;52.20
12769;DHT22;6448;48.916;8.990;2024-02-26T01:30:44;12.00;52.20
12769;DHT22;6448;48.916;8.990;2024-02-26T01:31:47;12.10;52.30
12769;DHT22;6448;48.916;8.990;2024-02-26T01:32:49;12.10;52.40
12769;DHT22;6448;48.916;8.990;2024-02-26T01:33:49;12.00;52.50
12769;DHT22;6448;48.916;8.990;2024-02-26T01:34:51;12.00;52.70
12769;DHT22;6448;48.916;8.990;2024-02-26T01:35:52;12.00;52.80
12769;DHT22;6448;48.916;8.990;2024-02-26T01:36:54;12.00;52.80
12769;DHT22;6448;48.916;8.990;2024-02-26T01:37:56;12.00;52.90
12769;DHT22;6448;48.916;8.990;2024-02-26T01:38:59;12.00;53.60
12769;DHT22;6448;48.916;8.990;2024-02-26T01:40:00;12.00;53.10
12769;DHT22;6448;48.916;8.990;2024-02-26T01:41:04;12.00;53.10
12769;DHT22;6448;48.916;8.990;2024-02-26T01:42:07;12.00;53.20
12769;DHT22;6448;48.916;8.990;2024-02-26T01:43:07;12.10;53.10
12769;DHT22;6448;48.916;8.990;2024-02-26T01:44:12;12.10;53.20
12769;DHT22;6448;48.916;8.990;2024-02-26T01:45:14;12.10;53.40
12769;DHT22;6448;48.916;8.990;2024-02-26T01:46:21;12.10;53.30
12769;DHT22;6448;48.916;8.990;2024-02-26T01:47:25;12.10;53.20
12769;DHT22;6448;48.916;8.990;2024-02-26T01:48:27;12.10;53.30
12769;DHT22;6448;48.916;8.990;2024-02-26T01:49:28;12.10;53.40
12769;DHT22;6448;48.916;8.990;2024-02-26T01:50:30;12.10;53.40
12769;DHT22;6448;48.916;8.990;2024-02-26T01:51:32;12.10;53.50
12769;DHT22;6448;48.916;8.990;2024-02-26T01:52:34;12.10;53.60
12769;DHT22;6448;48.916;8.990;2024-02-26T01:53:35;12.10;53.50
12769;DHT22;6448;48.916;8.990;2024-02-26T01:54:37;12.10;53.50
12769;DHT22;6448;48.916;8.990;2024-02-26T01:55:39;12.10;53.50
12769;DHT22;6448;48.916;8.990;2024-02-26T01:56:41;12.10;53.40
12769;DHT22;6448;48.916;8.990;2024-02-26T01:57:44;12.10;53.40
12769;DHT22;6448;48.916;8.990;2024-02-26T01:58:45;12.10;53.40
12769;DHT22;6448;48.916;8.990;2024-02-26T01:59:48;12.10;53.40
12769;DHT22;6448;48.916;8.990;2024-02-26T02:00:49;12.10;53.40
12769;DHT22;6448;48.916;8.990;2024-02-26T02:01:55;12.10;53.40
12769;DHT22;6448;48.916;8.990;2024-02-26T02:02:57;12.10;53.40
12769;DHT22;6448;48.916;8.990;2024-02-26T02:03:59;12.10;53.40
12769;DHT22;6448;48.916;8.990;2024-02-26T02:05:01;12.10;53.40
12769;DHT22;6448;48.916;8.990;2024-02-26T02:06:03;12.10;53.50
12769;DHT22;6448;48.916;8.990;2024-02-26T02:07:04;12.00;53.50
12769;DHT22;6448;48.916;8.990;2024-02-26T02:08:07;12.00;53.50
12769;DHT22;6448;48.916;8.990;2024-02-26T02:09:08;12.00;53.40
12769;DHT22;6448;48.916;8.990;2024-02-26T02:10:10;12.00;53.50
12769;DHT22;6448;48.916;8.990;2024-02-26T02:11:11;12.00;53.50
12769;DHT22;6448;48.916;8.990;2024-02-26T02:12:13;12.00;53.60
12769;DHT22;6448;48.916;8.990;2024-02-26T02:13:14;12.00;53.80
12769;DHT22;6448;48.916;8.990;2024-02-26T02:14:15;12.00;53.80
12769;DHT22;6448;48.916;8.990;2024-02-26T02:15:17;12.00;53.90
12769;DHT22;6448;48.916;8.990;2024-02-26T02:16:19;12.00;53.90
12769;DHT22;6448;48.916;8.990;2024-02-26T02:17:20;12.00;54.00
12769;DHT22;6448;48.916;8.990;2024-02-26T02:18:23;12.00;54.00
12769;DHT22;6448;48.916;8.990;2024-02-26T02:19:24;12.00;54.00
12769;DHT22;6448;48.916;8.990;2024-02-26T02:20:32;12.00;53.90
12769;DHT22;6448;48.916;8.990;2024-02-26T02:21:33;12.00;53.90
12769;DHT22;6448;48.916;8.990;2024-02-26T02:22:35;12.00;53.90
12769;DHT22;6448;48.916;8.990;2024-02-26T02:23:35;12.00;53.90
12769;DHT22;6448;48.916;8.990;2024-02-26T02:24:37;12.00;53.90
12769;DHT22;6448;48.916;8.990;2024-02-26T02:25:38;12.00;53.90
12769;DHT22;6448;48.916;8.990;2024-02-26T02:26:40;12.00;53.90
12769;DHT22;6448;48.916;8.990;2024-02-26T02:27:41;12.00;53.90
12769;DHT22;6448;48.916;8.990;2024-02-26T02:28:43;12.10;53.90
12769;DHT22;6448;48.916;8.990;2024-02-26T02:29:45;12.00;54.00
12769;DHT22;6448;48.916;8.990;2024-02-26T02:30:47;12.10;54.20
12769;DHT22;6448;48.916;8.990;2024-02-26T02:31:49;12.10;54.10
12769;DHT22;6448;48.916;8.990;2024-02-26T02:32:50;12.10;54.10
12769;DHT22;6448;48.916;8.990;2024-02-26T02:33:53;12.10;54.10
12769;DHT22;6448;48.916;8.990;2024-02-26T02:34:54;12.10;54.20
12769;DHT22;6448;48.916;8.990;2024-02-26T02:35:57;12.20;54.20
12769;DHT22;6448;48.916;8.990;2024-02-26T02:36:58;12.30;54.30
12769;DHT22;6448;48.916;8.990;2024-02-26T02:38:00;12.10;54.20
12769;DHT22;6448;48.916;8.990;2024-02-26T02:39:01;12.10;54.20
12769;DHT22;6448;48.916;8.990;2024-02-26T02:40:04;12.10;54.20
12769;DHT22;6448;48.916;8.990;2024-02-26T02:41:05;12.10;54.20
12769;DHT22;6448;48.916;8.990;2024-02-26T02:42:07;12.10;54.20
12769;DHT22;6448;48.916;8.990;2024-02-26T02:43:08;12.10;54.20
12769;DHT22;6448;48.916;8.990;2024-02-26T02:44:09;12.20;54.30
12769;DHT22;6448;48.916;8.990;2024-02-26T02:45:10;12.20;54.40
12769;DHT22;6448;48.916;8.990;2024-02-26T02:46:12;12.40;54.60
12769;DHT22;6448;48.916;8.990;2024-02-26T02:47:13;12.20;54.60
12769;DHT22;6448;48.916;8.990;2024-02-26T02:48:14;12.20;54.60
12769;DHT22;6448;48.916;8.990;2024-02-26T02:49:15;12.20;54.60
12769;DHT22;6448;48.916;8.990;2024-02-26T02:50:17;12.20;54.60
12769;DHT22;6448;48.916;8.990;2024-02-26T02:51:19;12.20;54.60
12769;DHT22;6448;48.916;8.990;2024-02-26T02:52:21;12.30;54.60
12769;DHT22;6448;48.916;8.990;2024-02-26T02:53:21;12.20;54.50
12769;DHT22;6448;48.916;8.990;2024-02-26T02:54:23;12.20;54.60
12769;DHT22;6448;48.916;8.990;2024-02-26T02:55:25;12.20;54.60
12769;DHT22;6448;48.916;8.990;2024-02-26T02:56:27;12.20;54.60
12769;DHT22;6448;48.916;8.990;2024-02-26T02:57:28;12.20;54.60
12769;DHT22;6448;48.916;8.990;2024-02-26T02:58:30;12.20;54.70
12769;DHT22;6448;48.916;8.990;2024-02-26T02:59:30;12.20;54.90
12769;DHT22;6448;48.916;8.990;2024-02-26T03:00:32;12.20;54.90
12769;DHT22;6448;48.916;8.990;2024-02-26T03:01:33;12.20;54.80
12769;DHT22;6448;48.916;8.990;2024-02-26T03:02:34;12.20;54.70
12769;DHT22;6448;48.916;8.990;2024-02-26T03:03:36;12.30;54.60
12769;DHT22;6448;48.916;8.990;2024-02-26T03:04:37;12.20;54.50
12769;DHT22;6448;48.916;8.990;2024-02-26T03:05:39;12.40;54.70
12769;DHT22;6448;48.916;8.990;2024-02-26T03:06:41;12.20;54.60
12769;DHT22;6448;48.916;8.990;2024-02-26T03:07:43;12.30;54.70
12769;DHT22;6448;48.916;8.990;2024-02-26T03:08:44;12.20;54.60
12769;DHT22;6448;48.916;8.990;2024-02-26T03:09:46;12.20;54.80
12769;DHT22;6448;48.916;8.990;2024-02-26T03:10:46;12.20;54.80
12769;DHT22;6448;48.916;8.990;2024-02-26T03:11:48;12.20;54.90
12769;DHT22;6448;48.916;8.990;2024-02-26T03:12:49;12.30;55.10
12769;DHT22;6448;48.916;8.990;2024-02-26T03:13:51;12.30;55.10
12769;DHT22;6448;48.916;8.990;2024-02-26T03:14:52;12.20;55.00
12769;DHT22;6448;48.916;8.990;2024-02-26T03:15:54;12.20;54.90
12769;DHT22;6448;48.916;8.990;2024-02-26T03:16:55;12.20;55.00
12769;DHT22;6448;48.916;8.990;2024-02-26T03:17:57;12.20;55.00
12769;DHT22;6448;48.916;8.990;2024-02-26T03:18:58;12.20;55.10
12769;DHT22;6448;48.916;8.990;2024-02-26T03:20:00;12.30;55.30
12769;DHT22;6448;48.916;8.990;2024-02-26T03:21:00;12.20;55.20
12769;DHT22;6448;48.916;8.990;2024-02-26T03:22:04;12.20;55.20
12769;DHT22;6448;48.916;8.990;2024-02-26T03:23:05;12.20;55.30
12769;DHT22;6448;48.916;8.990;2024-02-26T03:24:06;12.20;55.20
12769;DHT22;6448;48.916;8.990;2024-02-26T03:25:09;12.30;55.40
12769;DHT22;6448;48.916;8.990;2024-02-26T03:26:11;12.20;55.30
12769;DHT22;6448;48.916;8.990;2024-02-26T03:27:15;12.10;55.30
12769;DHT22;6448;48.916;8.990;2024-02-26T03:28:15;12.40;55.40
12769;DHT22;6448;48.916;8.990;2024-02-26T03:29:17;12.20;55.50
12769;DHT22;6448;48.916;8.990;2024-02-26T03:30:18;12.30;55.50
12769;DHT22;6448;48.916;8.990;2024-02-26T03:31:20;12.20;55.50
12769;DHT22;6448;48.916;8.990;2024-02-26T03:32:22;12.20;55.50
12769;DHT22;6448;48.916;8.990;2024-02-26T03:33:23;12.20;55.70
12769;DHT22;6448;48.916;8.990;2024-02-26T03:34:24;12.20;55.70
12769;DHT22;6448;48.916;8.990;2024-02-26T03:35:27;12.20;55.70
12769;DHT22;6448;48.916;8.990;2024-02-26T03:36:27;12.40;55.70
12769;DHT22;6448;48.916;8.990;2024-02-26T03:37:31;12.20;55.70
12769;DHT22;6448;48.916;8.990;2024-02-26T03:38:31;12.20;55.80
12769;DHT22;6448;48.916;8.990;2024-02-26T03:39:32;12.20;55.80
12769;DHT22;6448;48.916;8.990;2024-02-26T03:40:34;12.20;55.80
12769;DHT22;6448;48.916;8.990;2024-02-26T03:41:35;12.20;55.80
12769;DHT22;6448;48.916;8.990;2024-02-26T03:42:36;12.20;55.80
12769;DHT22;6448;48.916;8.990;2024-02-26T03:43:37;12.30;55.80
12769;DHT22;6448;48.916;8.990;2024-02-26T03:44:39;12.20;55.90
12769;DHT22;6448;48.916;8.990;2024-02-26T03:45:39;12.20;55.90
12769;DHT22;6448;48.916;8.990;2024-02-26T03:46:41;12.10;56.50
12769;DHT22;6448;48.916;8.990;2024-02-26T03:47:43;12.20;56.10
12769;DHT22;6448;48.916;8.990;2024-02-26T03:48:45;12.20;56.20
12769;DHT22;6448;48.916;8.990;2024-02-26T03:49:45;12.20;56.20
12769;DHT22;6448;48.916;8.990;2024-02-26T03:50:47;12.20;56.10
12769;DHT22;6448;48.916;8.990;2024-02-26T03:51:48;12.20;56.20
12769;DHT22;6448;48.916;8.990;2024-02-26T03:52:51;12.20;56.10
12769;DHT22;6448;48.916;8.990;2024-02-26T03:53:52;12.20;56.10
12769;DHT22;6448;48.916;8.990;2024-02-26T03:54:53;12.20;56.20
12769;DHT22;6448;48.916;8.990;2024-02-26T03:55:54;12.20;56.20
12769;DHT22;6448;48.916;8.990;2024-02-26T03:56:56;12.40;56.40
12769;DHT22;6448;48.916;8.990;2024-02-26T03:57:56;12.20;56.30
12769;DHT22;6448;48.916;8.990;2024-02-26T03:58:58;12.20;56.30
12769;DHT22;6448;48.916;8.990;2024-02-26T04:00:00;12.20;56.50
12769;DHT22;6448;48.916;8.990;2024-02-26T04:01:02;12.30;56.60
12769;DHT22;6448;48.916;8.990;2024-02-26T04:02:03;12.20;56.40
12769;DHT22;6448;48.916;8.990;2024-02-26T04:03:05;12.20;56.40
12769;DHT22;6448;48.916;8.990;2024-02-26T04:04:06;12.20;56.40
12769;DHT22;6448;48.916;8.990;2024-02-26T04:05:09;12.20;56.40
12769;DHT22;6448;48.916;8.990;2024-02-26T04:06:11;12.20;56.50
12769;DHT22;6448;48.916;8.990;2024-02-26T04:07:14;12.20;56.50
12769;DHT22;6448;48.916;8.990;2024-02-26T04:08:16;12.30;56.50
12769;DHT22;6448;48.916;8.990;2024-02-26T04:09:17;12.20;56.40
12769;DHT22;6448;48.916;8.990;2024-02-26T04:10:19;12.20;56.40
12769;DHT22;6448;48.916;8.990;2024-02-26T04:11:20;12.20;56.40
12769;DHT22;6448;48.916;8.990;2024-02-26T04:12:22;12.50;56.60
12769;DHT22;6448;48.916;8.990;2024-02-26T04:13:23;12.20;56.50
12769;DHT22;6448;48.916;8.990;2024-02-26T04:14:25;12.20;56.50
12769;DHT22;6448;48.916;8.990;2024-02-26T04:15:25;12.20;56.40
12769;DHT22;6448;48.916;8.990;2024-02-26T04:16:28;12.30;56.50
12769;DHT22;6448;48.916;8.990;2024-02-26T04:17:28;12.20;56.50
12769;DHT22;6448;48.916;8.990;2024-02-26T04:18:30;12.30;56.60
12769;DHT22;6448;48.916;8.990;2024-02-26T04:19:31;12.60;56.80
12769;DHT22;6448;48.916;8.990;2024-02-26T04:20:32;12.20;56.60
12769;DHT22;6448;48.916;8.990;2024-02-26T04:21:33;12.20;56.60
12769;DHT22;6448;48.916;8.990;2024-02-26T04:22:34;12.30;56.70
12769;DHT22;6448;48.916;8.990;2024-02-26T04:23:37;12.20;56.60
12769;DHT22;6448;48.916;8.990;2024-02-26T04:24:38;12.30;56.60
12769;DHT22;6448;48.916;8.990;2024-02-26T04:25:40;12.30;56.60
12769;DHT22;6448;48.916;8.990;2024-02-26T04:26:40;12.20;56.60
12769;DHT22;6448;48.916;8.990;2024-02-26T04:27:41;12.20;56.40
12769;DHT22;6448;48.916;8.990;2024-02-26T04:28:43;12.20;56.50
12769;DHT22;6448;48.916;8.990;2024-02-26T04:29:44;12.20;56.40
12769;DHT22;6448;48.916;8.990;2024-02-26T04:30:45;12.30;56.50
12769;DHT22;6448;48.916;8.990;2024-02-26T04:31:46;12.30;56.80
12769;DHT22;6448;48.916;8.990;2024-02-26T04:32:48;12.30;56.70
12769;DHT22;6448;48.916;8.990;2024-02-26T04:33:50;12.40;56.80
12769;DHT22;6448;48.916;8.990;2024-02-26T04:34:50;12.20;56.70
12769;DHT22;6448;48.916;8.990;2024-02-26T04:35:52;12.20;56.60
12769;DHT22;6448;48.916;8.990;2024-02-26T04:36:53;12.20;56.60
12769;DHT22;6448;48.916;8.990;2024-02-26T04:37:55;12.20;56.50
12769;DHT22;6448;48.916;8.990;2024-02-26T04:38:57;12.20;56.50
12769;DHT22;6448;48.916;8.990;2024-02-26T04:39:58;12.20;56.60
12769;DHT22;6448;48.916;8.990;2024-02-26T04:41:00;12.30;56.60
12769;DHT22;6448;48.916;8.990;2024-02-26T04:42:01;12.30;56.50
12769;DHT22;6448;48.916;8.990;2024-02-26T04:43:04;12.20;56.40
12769;DHT22;6448;48.916;8.990;2024-02-26T04:44:05;12.30;56.50
12769;DHT22;6448;48.916;8.990;2024-02-26T04:45:07;12.30;56.50
12769;DHT22;6448;48.916;8.990;2024-02-26T04:46:09;12.30;56.50
12769;DHT22;6448;48.916;8.990;2024-02-26T04:47:10;12.30;56.40
12769;DHT22;6448;48.916;8.990;2024-02-26T04:48:11;12.50;56.50
12769;DHT22;6448;48.916;8.990;2024-02-26T04:49:13;12.30;56.40
12769;DHT22;6448;48.916;8.990;2024-02-26T04:50:14;12.30;56.40
12769;DHT22;6448;48.916;8.990;2024-02-26T04:51:16;12.30;56.40
12769;DHT22;6448;48.916;8.990;2024-02-26T04:52:16;12.30;57.00
12769;DHT22;6448;48.916;8.990;2024-02-26T04:53:18;12.30;56.30
12769;DHT22;6448;48.916;8.990;2024-02-26T04:54:21;12.30;56.40
12769;DHT22;6448;48.916;8.990;2024-02-26T04:55:22;12.30;56.40
12769;DHT22;6448;48.916;8.990;2024-02-26T04:56:23;12.30;56.40
12769;DHT22;6448;48.916;8.990;2024-02-26T04:57:24;12.50;56.60
12769;DHT22;6448;48.916;8.990;2024-02-26T04:58:26;12.30;56.50
12769;DHT22;6448;48.916;8.990;2024-02-26T04:59:27;12.30;56.50
12769;DHT22;6448;48.916;8.990;2024-02-26T05:00:29;12.30;56.50
12769;DHT22;6448;48.916;8.990;2024-02-26T05:01:29;12.50;56.50
12769;DHT22;6448;48.916;8.990;2024-02-26T05:02:31;12.30;56.50
12769;DHT22;6448;48.916;8.990;2024-02-26T05:03:33;12.30;56.50
12769;DHT22;6448;48.916;8.990;2024-02-26T05:04:35;12.30;56.40
12769;DHT22;6448;48.916;8.990;2024-02-26T05:05:36;12.30;56.40
12769;DHT22;6448;48.916;8.990;2024-02-26T05:06:38;12.30;56.40
12769;DHT22;6448;48.916;8.990;2024-02-26T05:07:42;12.30;56.30
12769;DHT22;6448;48.916;8.990;2024-02-26T05:08:44;12.50;56.40
12769;DHT22;6448;48.916;8.990;2024-02-26T05:09:46;12.30;56.40
12769;DHT22;6448;48.916;8.990;2024-02-26T05:10:50;12.30;56.40
12769;DHT22;6448;48.916;8.990;2024-02-26T05:11:50;12.30;56.40
12769;DHT22;6448;48.916;8.990;2024-02-26T05:12:52;12.30;56.40
12769;DHT22;6448;48.916;8.990;2024-02-26T05:13:53;12.40;56.50
12769;DHT22;6448;48.916;8.990;2024-02-26T05:14:54;12.30;56.30
12769;DHT22;6448;48.916;8.990;2024-02-26T05:15:56;12.30;56.20
12769;DHT22;6448;48.916;8.990;2024-02-26T05:16:57;12.30;56.30
12769;DHT22;6448;48.916;8.990;2024-02-26T05:17:58;12.50;56.30
12769;DHT22;6448;48.916;8.990;2024-02-26T05:18:59;12.30;56.80
12769;DHT22;6448;48.916;8.990;2024-02-26T05:20:01;12.30;56.20
12769;DHT22;6448;48.916;8.990;2024-02-26T05:21:02;12.30;56.20
12769;DHT22;6448;48.916;8.990;2024-02-26T05:22:04;12.40;56.20
12769;DHT22;6448;48.916;8.990;2024-02-26T05:23:05;12.30;56.10
12769;DHT22;6448;48.916;8.990;2024-02-26T05:24:07;12.30;56.10
12769;DHT22;6448;48.916;8.990;2024-02-26T05:25:09;12.40;56.10
12769;DHT22;6448;48.916;8.990;2024-02-26T05:26:11;12.40;56.10
12769;DHT22;6448;48.916;8.990;2024-02-26T05:27:12;12.40;56.00
12769;DHT22;6448;48.916;8.990;2024-02-26T05:28:14;12.40;56.00
12769;DHT22;6448;48.916;8.990;2024-02-26T05:29:16;12.40;56.00
12769;DHT22;6448;48.916;8.990;2024-02-26T05:30:18;12.40;56.00
12769;DHT22;6448;48.916;8.990;2024-02-26T05:31:18;12.40;56.00
12769;DHT22;6448;48.916;8.990;2024-02-26T05:32:19;12.40;55.90
12769;DHT22;6448;48.916;8.990;2024-02-26T05:33:21;12.40;55.90
12769;DHT22;6448;48.916;8.990;2024-02-26T05:34:23;12.30;55.90
12769;DHT22;6448;48.916;8.990;2024-02-26T05:35:25;12.40;56.00
12769;DHT22;6448;48.916;8.990;2024-02-26T05:36:26;12.50;56.10
12769;DHT22;6448;48.916;8.990;2024-02-26T05:37:29;12.40;56.10
12769;DHT22;6448;48.916;8.990;2024-02-26T05:38:30;12.40;56.10
12769;DHT22;6448;48.916;8.990;2024-02-26T05:39:32;12.40;56.20
12769;DHT22;6448;48.916;8.990;2024-02-26T05:40:34;12.30;56.20
12769;DHT22;6448;48.916;8.990;2024-02-26T05:41:36;12.40;56.20
12769;DHT22;6448;48.916;8.990;2024-02-26T05:42:37;12.40;56.20
12769;DHT22;6448;48.916;8.990;2024-02-26T05:43:38;12.40;56.20
12769;DHT22;6448;48.916;8.990;2024-02-26T05:44:39;12.40;56.30
12769;DHT22;6448;48.916;8.990;2024-02-26T05:45:40;12.40;56.20
12769;DHT22;6448;48.916;8.990;2024-02-26T05:46:42;12.40;56.30
12769;DHT22;6448;48.916;8.990;2024-02-26T05:47:43;12.50;56.30
12769;DHT22;6448;48.916;8.990;2024-02-26T05:48:43;12.40;56.20
12769;DHT22;6448;48.916;8.990;2024-02-26T05:49:45;12.40;56.20
12769;DHT22;6448;48.916;8.990;2024-02-26T05:50:46;12.40;56.20
12769;DHT22;6448;48.916;8.990;2024-02-26T05:51:48;12.40;56.20
12769;DHT22;6448;48.916;8.990;2024-02-26T05:52:49;12.40;56.20
12769;DHT22;6448;48.916;8.990;2024-02-26T05:53:50;12.50;56.20
12769;DHT22;6448;48.916;8.990;2024-02-26T05:54:54;12.40;56.20
12769;DHT22;6448;48.916;8.990;2024-02-26T05:55:57;12.40;56.30
12769;DHT22;6448;48.916;8.990;2024-02-26T05:56:58;12.50;56.40
12769;DHT22;6448;48.916;8.990;2024-02-26T05:58:00;12.40;56.30
12769;DHT22;6448;48.916;8.990;2024-02-26T05:59:00;12.40;56.40
12769;DHT22;6448;48.916;8.990;2024-02-26T06:00:03;12.40;56.40
12769;DHT22;6448;48.916;8.990;2024-02-26T06:01:12;12.40;56.40
12769;DHT22;6448;48.916;8.990;2024-02-26T06:02:13;12.40;56.40
12769;DHT22;6448;48.916;8.990;2024-02-26T06:03:14;12.40;56.50
12769;DHT22;6448;48.916;8.990;2024-02-26T06:04:16;12.40;56.50
12769;DHT22;6448;48.916;8.990;2024-02-26T06:05:18;12.40;56.50
12769;DHT22;6448;48.916;8.990;2024-02-26T06:06:19;12.40;56.50
12769;DHT22;6448;48.916;8.990;2024-02-26T06:07:22;12.40;56.60
12769;DHT22;6448;48.916;8.990;2024-02-26T06:08:23;12.40;56.60
12769;DHT22;6448;48.916;8.990;2024-02-26T06:09:24;12.40;56.60
12769;DHT22;6448;48.916;8.990;2024-02-26T06:10:25;12.40;56.60
12769;DHT22;6448;48.916;8.990;2024-02-26T06:11:28;12.40;56.60
12769;DHT22;6448;48.916;8.990;2024-02-26T06:12:29;12.40;56.60
12769;DHT22;6448;48.916;8.990;2024-02-26T06:13:31;12.40;56.60
12769;DHT22;6448;48.916;8.990;2024-02-26T06:14:32;12.40;56.50
12769;DHT22;6448;48.916;8.990;2024-02-26T06:15:32;12.40;56.60
12769;DHT22;6448;48.916;8.990;2024-02-26T06:16:34;12.40;56.60
12769;DHT22;6448;48.916;8.990;2024-02-26T06:17:35;12.40;56.60
12769;DHT22;6448;48.916;8.990;2024-02-26T06:18:37;12.40;56.60
12769;DHT22;6448;48.916;8.990;2024-02-26T06:19:37;12.40;56.70
12769;DHT22;6448;48.916;8.990;2024-02-26T06:20:39;12.40;56.80
12769;DHT22;6448;48.916;8.990;2024-02-26T06:21:40;12.40;56.60
12769;DHT22;6448;48.916;8.990;2024-02-26T06:22:42;12.40;56.60
12769;DHT22;6448;48.916;8.990;2024-02-26T06:23:43;12.50;56.70
12769;DHT22;6448;48.916;8.990;2024-02-26T06:24:45;12.40;56.60
12769;DHT22;6448;48.916;8.990;2024-02-26T06:25:46;12.40;56.60
12769;DHT22;6448;48.916;8.990;2024-02-26T06:26:49;12.40;56.60
12769;DHT22;6448;48.916;8.990;2024-02-26T06:27:50;12.40;56.60
12769;DHT22;6448;48.916;8.990;2024-02-26T06:28:51;12.40;56.60
12769;DHT22;6448;48.916;8.990;2024-02-26T06:29:53;12.40;56.70
12769;DHT22;6448;48.916;8.990;2024-02-26T06:30:53;12.50;56.70
12769;DHT22;6448;48.916;8.990;2024-02-26T06:31:55;12.40;56.80
12769;DHT22;6448;48.916;8.990;2024-02-26T06:32:56;12.40;56.80
12769;DHT22;6448;48.916;8.990;2024-02-26T06:33:58;12.50;56.80
12769;DHT22;6448;48.916;8.990;2024-02-26T06:34:58;12.40;56.80